sensor_id;sensor_type;location;lat;lon;timestamp;pressure;altitude;pressure_sealevel;temperature;humidity
64933;BME280;51446;53.850;10.662;2023-02-13T00:02:03;103707.22;;;6.42;100.00
64933;BME280;51446;53.850;10.662;2023-02-13T00:04:29;103708.53;;;6.37;100.00
64933;BME280;51446;53.850;10.662;2023-02-13T00:06:54;103703.44;;;6.17;100.00
64933;BME280;51446;53.850;10.662;2023-02-13T00:09:19;103704.97;;;6.15;100.00
64933;BME280;51446;53.850;10.662;2023-02-13T00:11:44;103710.72;;;6.11;100.00
64933;BME280;51446;53.850;10.662;2023-02-13T00:14:10;103707.22;;;6.10;100.00
64933;BME280;51446;53.850;10.662;2023-02-13T00:16:35;103711.38;;;6.18;100.00
64933;BME280;51446;53.850;10.662;2023-02-13T00:19:00;103706.81;;;6.16;100.00
64933;BME280;51446;53.850;10.662;2023-02-13T00:21:25;103703.97;;;6.13;100.00
64933;BME280;51446;53.850;10.662;2023-02-13T00:23:51;103706.13;;;6.29;100.00
64933;BME280;51446;53.850;10.662;2023-02-13T00:26:16;103701.06;;;6.20;100.00
64933;BME280;51446;53.850;10.662;2023-02-13T00:28:42;103694.09;;;6.31;100.00
64933;BME280;51446;53.850;10.662;2023-02-13T00:31:10;103700.81;;;6.17;100.00
64933;BME280;51446;53.850;10.662;2023-02-13T00:33:37;103693.84;;;6.28;100.00
64933;BME280;51446;53.850;10.662;2023-02-13T00:36:10;103688.28;;;6.23;100.00
64933;BME280;51446;53.850;10.662;2023-02-13T00:38:37;103689.09;;;6.12;100.00
64933;BME280;51446;53.850;10.662;2023-02-13T00:41:03;103685.16;;;6.27;100.00
64933;BME280;51446;53.850;10.662;2023-02-13T00:43:29;103677.91;;;6.13;100.00
64933;BME280;51446;53.850;10.662;2023-02-13T00:45:55;103672.28;;;6.18;100.00
64933;BME280;51446;53.850;10.662;2023-02-13T00:48:20;103667.69;;;6.48;100.00
64933;BME280;51446;53.850;10.662;2023-02-13T00:50:46;103669.44;;;6.37;100.00
64933;BME280;51446;53.850;10.662;2023-02-13T00:53:11;103674.66;;;6.37;100.00
64933;BME280;51446;53.850;10.662;2023-02-13T00:55:37;103671.69;;;6.33;100.00
64933;BME280;51446;53.850;10.662;2023-02-13T00:58:02;103679.28;;;6.19;100.00
64933;BME280;51446;53.850;10.662;2023-02-13T01:00:27;103674.00;;;6.40;100.00
64933;BME280;51446;53.850;10.662;2023-02-13T01:02:54;103674.72;;;6.27;100.00
64933;BME280;51446;53.850;10.662;2023-02-13T01:05:19;103681.75;;;6.28;100.00
64933;BME280;51446;53.850;10.662;2023-02-13T01:07:44;103684.38;;;6.18;100.00
64933;BME280;51446;53.850;10.662;2023-02-13T01:10:10;103682.72;;;6.18;100.00
64933;BME280;51446;53.850;10.662;2023-02-13T01:12:35;103685.31;;;6.18;100.00
64933;BME280;51446;53.850;10.662;2023-02-13T01:15:01;103680.59;;;6.24;100.00
64933;BME280;51446;53.850;10.662;2023-02-13T01:17:26;103687.56;;;6.14;100.00
64933;BME280;51446;53.850;10.662;2023-02-13T01:19:52;103688.03;;;6.20;100.00
64933;BME280;51446;53.850;10.662;2023-02-13T01:22:17;103689.81;;;6.31;100.00
64933;BME280;51446;53.850;10.662;2023-02-13T01:24:42;103680.78;;;6.38;100.00
64933;BME280;51446;53.850;10.662;2023-02-13T01:27:07;103683.97;;;6.23;100.00
64933;BME280;51446;53.850;10.662;2023-02-13T01:29:33;103670.75;;;6.42;100.00
64933;BME280;51446;53.850;10.662;2023-02-13T01:31:58;103677.44;;;6.29;100.00
64933;BME280;51446;53.850;10.662;2023-02-13T01:34:23;103663.75;;;6.31;100.00
64933;BME280;51446;53.850;10.662;2023-02-13T01:36:48;103674.72;;;6.27;100.00
64933;BME280;51446;53.850;10.662;2023-02-13T01:39:14;103671.88;;;6.24;100.00
64933;BME280;51446;53.850;10.662;2023-02-13T01:41:39;103669.63;;;6.29;100.00
64933;BME280;51446;53.850;10.662;2023-02-13T01:47:08;103669.44;;;6.37;100.00
64933;BME280;51446;53.850;10.662;2023-02-13T01:49:34;103655.00;;;6.31;100.00
64933;BME280;51446;53.850;10.662;2023-02-13T01:52:00;103652.50;;;6.42;100.00
64933;BME280;51446;53.850;10.662;2023-02-13T01:54:27;103660.47;;;6.34;100.00
64933;BME280;51446;53.850;10.662;2023-02-13T01:56:59;103646.16;;;6.29;100.00
64933;BME280;51446;53.850;10.662;2023-02-13T01:59:30;103667.50;;;6.35;100.00
64933;BME280;51446;53.850;10.662;2023-02-13T02:01:57;103657.31;;;6.38;100.00
64933;BME280;51446;53.850;10.662;2023-02-13T02:04:28;103667.25;;;6.32;100.00
64933;BME280;51446;53.850;10.662;2023-02-13T02:07:00;103658.91;;;6.36;100.00
64933;BME280;51446;53.850;10.662;2023-02-13T02:09:31;103655.00;;;6.31;100.00
64933;BME280;51446;53.850;10.662;2023-02-13T02:12:01;103657.25;;;6.26;100.00
64933;BME280;51446;53.850;10.662;2023-02-13T02:14:28;103657.00;;;6.23;100.00
64933;BME280;51446;53.850;10.662;2023-02-13T02:16:54;103646.06;;;6.27;100.00
64933;BME280;51446;53.850;10.662;2023-02-13T02:28:01;103650.91;;;6.22;100.00
64933;BME280;51446;53.850;10.662;2023-02-13T02:33:11;103647.59;;;6.03;100.00
64933;BME280;51446;53.850;10.662;2023-02-13T02:35:58;103651.56;;;6.20;100.00
64933;BME280;51446;53.850;10.662;2023-02-13T02:41:24;103660.75;;;6.04;100.00
64933;BME280;51446;53.850;10.662;2023-02-13T02:44:40;103662.84;;;5.98;100.00
64933;BME280;51446;53.850;10.662;2023-02-13T02:47:17;103655.66;;;6.06;100.00
64933;BME280;51446;53.850;10.662;2023-02-13T02:50:27;103658.63;;;6.11;100.00
64933;BME280;51446;53.850;10.662;2023-02-13T02:56:04;103642.63;;;6.06;100.00
64933;BME280;51446;53.850;10.662;2023-02-13T03:01:23;103639.13;;;6.05;100.00
64933;BME280;51446;53.850;10.662;2023-02-13T03:04:22;103632.09;;;5.94;100.00
64933;BME280;51446;53.850;10.662;2023-02-13T03:07:09;103632.09;;;5.94;100.00
64933;BME280;51446;53.850;10.662;2023-02-13T03:09:40;103630.84;;;5.79;100.00
64933;BME280;51446;53.850;10.662;2023-02-13T03:12:29;103638.41;;;5.76;100.00
64933;BME280;51446;53.850;10.662;2023-02-13T03:15:16;103634.78;;;5.73;100.00
64933;BME280;51446;53.850;10.662;2023-02-13T03:17:42;103633.06;;;5.74;100.00
64933;BME280;51446;53.850;10.662;2023-02-13T03:20:46;103635.44;;;5.71;100.00
64933;BME280;51446;53.850;10.662;2023-02-13T03:24:54;103639.41;;;5.88;100.00
64933;BME280;51446;53.850;10.662;2023-02-13T03:26:56;103637.81;;;6.00;100.00
64933;BME280;51446;53.850;10.662;2023-02-13T03:29:39;103641.38;;;6.01;100.00
64933;BME280;51446;53.850;10.662;2023-02-13T03:32:48;103648.75;;;5.96;100.00
64933;BME280;51446;53.850;10.662;2023-02-13T03:35:46;103652.03;;;6.04;100.00
64933;BME280;51446;53.850;10.662;2023-02-13T03:39:11;103656.59;;;5.86;100.00
64933;BME280;51446;53.850;10.662;2023-02-13T03:41:46;103654.38;;;5.90;100.00
64933;BME280;51446;53.850;10.662;2023-02-13T03:44:33;103656.22;;;5.81;100.00
64933;BME280;51446;53.850;10.662;2023-02-13T03:47:02;103654.13;;;5.87;100.00
64933;BME280;51446;53.850;10.662;2023-02-13T03:49:35;103646.44;;;5.99;100.00
64933;BME280;51446;53.850;10.662;2023-02-13T03:52:30;103650.13;;;5.81;100.00
64933;BME280;51446;53.850;10.662;2023-02-13T03:54:59;103644.66;;;5.78;100.00
64933;BME280;51446;53.850;10.662;2023-02-13T03:57:46;103642.19;;;5.69;100.00
64933;BME280;51446;53.850;10.662;2023-02-13T04:00:39;103649.22;;;5.70;100.00
64933;BME280;51446;53.850;10.662;2023-02-13T04:03:21;103651.56;;;5.77;100.00
64933;BME280;51446;53.850;10.662;2023-02-13T04:05:53;103658.31;;;5.85;100.00
64933;BME280;51446;53.850;10.662;2023-02-13T04:08:20;103658.31;;;5.85;100.00
64933;BME280;51446;53.850;10.662;2023-02-13T04:10:52;103655.34;;;5.81;100.00
64933;BME280;51446;53.850;10.662;2023-02-13T04:13:31;103663.50;;;5.85;100.00
64933;BME280;51446;53.850;10.662;2023-02-13T04:16:10;103665.09;;;5.73;100.00
64933;BME280;51446;53.850;10.662;2023-02-13T04:18:40;103666.28;;;5.77;100.00
64933;BME280;51446;53.850;10.662;2023-02-13T04:21:06;103669.53;;;5.74;100.00
64933;BME280;51446;53.850;10.662;2023-02-13T04:23:32;103670.19;;;5.71;100.00
64933;BME280;51446;53.850;10.662;2023-02-13T04:26:00;103669.66;;;5.76;100.00
64933;BME280;51446;53.850;10.662;2023-02-13T04:28:26;103671.84;;;5.81;100.00
64933;BME280;51446;53.850;10.662;2023-02-13T04:30:51;103671.47;;;5.77;100.00
64933;BME280;51446;53.850;10.662;2023-02-13T04:33:16;103666.81;;;5.72;100.00
64933;BME280;51446;53.850;10.662;2023-02-13T04:35:42;103667.56;;;5.71;100.00
64933;BME280;51446;53.850;10.662;2023-02-13T04:38:07;103669.53;;;5.74;100.00
64933;BME280;51446;53.850;10.662;2023-02-13T04:40:32;103666.16;;;5.75;100.00
64933;BME280;51446;53.850;10.662;2023-02-13T04:42:58;103662.47;;;5.83;100.00
64933;BME280;51446;53.850;10.662;2023-02-13T04:45:23;103654.66;;;5.83;100.00
64933;BME280;51446;53.850;10.662;2023-02-13T04:47:50;103657.41;;;5.74;100.00
64933;BME280;51446;53.850;10.662;2023-02-13T04:50:16;103656.22;;;5.81;100.00
64933;BME280;51446;53.850;10.662;2023-02-13T04:52:41;103656.63;;;5.76;100.00
64933;BME280;51446;53.850;10.662;2023-02-13T04:55:07;103648.06;;;5.77;100.00
64933;BME280;51446;53.850;10.662;2023-02-13T04:57:32;103658.56;;;5.88;100.00
64933;BME280;51446;53.850;10.662;2023-02-13T04:59:57;103652.19;;;5.85;100.00
64933;BME280;51446;53.850;10.662;2023-02-13T05:02:23;103655.69;;;5.85;100.00
64933;BME280;51446;53.850;10.662;2023-02-13T05:04:48;103651.16;;;5.83;100.00
64933;BME280;51446;53.850;10.662;2023-02-13T05:07:13;103658.44;;;5.87;100.00
64933;BME280;51446;53.850;10.662;2023-02-13T05:09:38;103655.81;;;5.87;100.00
64933;BME280;51446;53.850;10.662;2023-02-13T05:12:04;103661.81;;;5.86;100.00
64933;BME280;51446;53.850;10.662;2023-02-13T05:14:29;103662.88;;;5.88;100.00
64933;BME280;51446;53.850;10.662;2023-02-13T05:16:54;103660.94;;;5.75;100.00
64933;BME280;51446;53.850;10.662;2023-02-13T05:19:20;103669.00;;;5.78;100.00
64933;BME280;51446;53.850;10.662;2023-02-13T05:21:45;103665.63;;;5.69;100.00
64933;BME280;51446;53.850;10.662;2023-02-13T05:24:28;103676.97;;;5.69;100.00
64933;BME280;51446;53.850;10.662;2023-02-13T05:26:54;103671.88;;;5.71;100.00
64933;BME280;51446;53.850;10.662;2023-02-13T05:29:19;103668.75;;;5.75;100.00
64933;BME280;51446;53.850;10.662;2023-02-13T05:31:45;103668.66;;;5.63;100.00
64933;BME280;51446;53.850;10.662;2023-02-13T05:34:11;103663.59;;;5.65;100.00
64933;BME280;51446;53.850;10.662;2023-02-13T05:36:36;103663.06;;;5.59;100.00
64933;BME280;51446;53.850;10.662;2023-02-13T05:39:02;103667.44;;;5.70;100.00
64933;BME280;51446;53.850;10.662;2023-02-13T05:41:27;103673.47;;;5.59;100.00
64933;BME280;51446;53.850;10.662;2023-02-13T05:43:52;103669.84;;;5.56;100.00
64933;BME280;51446;53.850;10.662;2023-02-13T05:46:18;103667.81;;;5.74;100.00
64933;BME280;51446;53.850;10.662;2023-02-13T05:48:43;103659.50;;;5.79;100.00
64933;BME280;51446;53.850;10.662;2023-02-13T05:51:08;103669.28;;;5.71;100.00
64933;BME280;51446;53.850;10.662;2023-02-13T05:53:34;103669.97;;;5.58;100.00
64933;BME280;51446;53.850;10.662;2023-02-13T05:56:00;103672.81;;;5.61;100.00
64933;BME280;51446;53.850;10.662;2023-02-13T05:58:26;103676.34;;;5.51;100.00
64933;BME280;51446;53.850;10.662;2023-02-13T06:00:55;103672.06;;;5.52;100.00
64933;BME280;51446;53.850;10.662;2023-02-13T06:03:20;103677.03;;;5.49;100.00
64933;BME280;51446;53.850;10.662;2023-02-13T06:05:45;103672.22;;;5.43;100.00
64933;BME280;51446;53.850;10.662;2023-02-13T06:08:10;103675.69;;;5.54;100.00
64933;BME280;51446;53.850;10.662;2023-02-13T06:10:36;103676.75;;;5.56;100.00
64933;BME280;51446;53.850;10.662;2023-02-13T06:13:01;103683.66;;;5.45;100.00
64933;BME280;51446;53.850;10.662;2023-02-13T06:15:27;103684.03;;;5.39;100.00
64933;BME280;51446;53.850;10.662;2023-02-13T06:17:52;103688.19;;;5.58;100.00
64933;BME280;51446;53.850;10.662;2023-02-13T06:20:17;103682.97;;;5.58;100.00
64933;BME280;51446;53.850;10.662;2023-02-13T06:22:42;103694.28;;;5.59;100.00
64933;BME280;51446;53.850;10.662;2023-02-13T06:25:08;103692.09;;;5.53;100.00
64933;BME280;51446;53.850;10.662;2023-02-13T06:27:33;103690.25;;;5.62;100.00
64933;BME280;51446;53.850;10.662;2023-02-13T06:29:58;103697.81;;;5.59;100.00
64933;BME280;51446;53.850;10.662;2023-02-13T06:32:23;103693.88;;;5.64;100.00
64933;BME280;51446;53.850;10.662;2023-02-13T06:34:49;103697.03;;;5.50;100.00
64933;BME280;51446;53.850;10.662;2023-02-13T06:37:14;103698.81;;;5.71;100.00
64933;BME280;51446;53.850;10.662;2023-02-13T06:39:39;103708.63;;;5.53;100.00
64933;BME280;51446;53.850;10.662;2023-02-13T06:42:04;103704.84;;;5.70;100.00
64933;BME280;51446;53.850;10.662;2023-02-13T06:44:30;103703.63;;;5.77;100.00
64933;BME280;51446;53.850;10.662;2023-02-13T06:46:55;103710.69;;;5.47;100.00
64933;BME280;51446;53.850;10.662;2023-02-13T06:49:20;103709.00;;;5.58;100.00
64933;BME280;51446;53.850;10.662;2023-02-13T06:51:45;103714.47;;;5.51;100.00
64933;BME280;51446;53.850;10.662;2023-02-13T06:54:11;103713.72;;;5.52;100.00
64933;BME280;51446;53.850;10.662;2023-02-13T06:56:36;103718.13;;;5.53;100.00
64933;BME280;51446;53.850;10.662;2023-02-13T06:59:01;103715.78;;;5.46;100.00
64933;BME280;51446;53.850;10.662;2023-02-13T07:01:26;103721.13;;;5.37;100.00
64933;BME280;51446;53.850;10.662;2023-02-13T07:03:52;103726.97;;;5.55;100.00
64933;BME280;51446;53.850;10.662;2023-02-13T07:06:18;103732.03;;;5.64;100.00
64933;BME280;51446;53.850;10.662;2023-02-13T07:08:44;103721.50;;;5.62;100.00
64933;BME280;51446;53.850;10.662;2023-02-13T07:11:16;103727.50;;;5.51;100.00
64933;BME280;51446;53.850;10.662;2023-02-13T07:13:41;103731.16;;;5.63;100.00
64933;BME280;51446;53.850;10.662;2023-02-13T07:16:07;103728.78;;;5.77;100.00
64933;BME280;51446;53.850;10.662;2023-02-13T07:18:32;103732.16;;;5.65;100.00
64933;BME280;51446;53.850;10.662;2023-02-13T07:20:57;103732.69;;;5.61;100.00
64933;BME280;51446;53.850;10.662;2023-02-13T07:23:22;103727.50;;;5.51;100.00
64933;BME280;51446;53.850;10.662;2023-02-13T07:25:48;103727.09;;;5.56;100.00
64933;BME280;51446;53.850;10.662;2023-02-13T07:28:13;103732.56;;;5.60;100.00
64933;BME280;51446;53.850;10.662;2023-02-13T07:30:38;103720.22;;;5.47;100.00
64933;BME280;51446;53.850;10.662;2023-02-13T07:33:04;103724.25;;;5.53;100.00
64933;BME280;51446;53.850;10.662;2023-02-13T07:35:29;103727.50;;;5.51;100.00
64933;BME280;51446;53.850;10.662;2023-02-13T07:37:55;103730.47;;;5.55;100.00
64933;BME280;51446;53.850;10.662;2023-02-13T07:40:21;103729.31;;;5.52;100.00
64933;BME280;51446;53.850;10.662;2023-02-13T07:42:46;103724.38;;;5.55;100.00
64933;BME280;51446;53.850;10.662;2023-02-13T07:45:11;103731.16;;;5.63;100.00
64933;BME280;51446;53.850;10.662;2023-02-13T07:47:39;103735.94;;;5.69;100.00
64933;BME280;51446;53.850;10.662;2023-02-13T07:50:05;103727.72;;;5.64;100.00
64933;BME280;51446;53.850;10.662;2023-02-13T07:52:30;103725.25;;;5.66;100.00
64933;BME280;51446;53.850;10.662;2023-02-13T07:54:56;103723.72;;;5.58;100.00
64933;BME280;51446;53.850;10.662;2023-02-13T07:57:21;103726.47;;;5.59;100.00
64933;BME280;51446;53.850;10.662;2023-02-13T07:59:47;103730.72;;;5.59;100.00
64933;BME280;51446;53.850;10.662;2023-02-13T08:02:13;103728.91;;;5.68;100.00
64933;BME280;51446;53.850;10.662;2023-02-13T08:04:39;103736.34;;;5.63;100.00
64933;BME280;51446;53.850;10.662;2023-02-13T08:07:04;103739.09;;;5.65;100.00
64933;BME280;51446;53.850;10.662;2023-02-13T08:09:29;103746.47;;;5.60;100.00
64933;BME280;51446;53.850;10.662;2023-02-13T08:12:13;103745.31;;;5.67;100.00
64933;BME280;51446;53.850;10.662;2023-02-13T08:14:38;103751.00;;;5.83;100.00
64933;BME280;51446;53.850;10.662;2023-02-13T08:17:03;103749.75;;;5.68;100.00
64933;BME280;51446;53.850;10.662;2023-02-13T08:19:29;103745.28;;;5.87;100.00
64933;BME280;51446;53.850;10.662;2023-02-13T08:21:54;103749.59;;;5.87;100.00
64933;BME280;51446;53.850;10.662;2023-02-13T08:24:19;103747.50;;;5.83;100.00
64933;BME280;51446;53.850;10.662;2023-02-13T08:26:45;103747.00;;;5.77;100.00
64933;BME280;51446;53.850;10.662;2023-02-13T08:29:10;103747.66;;;5.74;100.00
64933;BME280;51446;53.850;10.662;2023-02-13T08:31:36;103749.75;;;5.68;100.00
64933;BME280;51446;53.850;10.662;2023-02-13T08:34:01;103744.91;;;5.83;100.00
64933;BME280;51446;53.850;10.662;2023-02-13T08:36:27;103755.47;;;5.74;100.00
64933;BME280;51446;53.850;10.662;2023-02-13T08:38:52;103748.41;;;5.83;100.00
64933;BME280;51446;53.850;10.662;2023-02-13T08:41:18;103753.59;;;5.83;100.00
64933;BME280;51446;53.850;10.662;2023-02-13T08:43:44;103754.16;;;5.79;100.00
64933;BME280;51446;53.850;10.662;2023-02-13T08:46:10;103746.59;;;5.82;100.00
64933;BME280;51446;53.850;10.662;2023-02-13T08:48:35;103738.63;;;5.91;100.00
64933;BME280;51446;53.850;10.662;2023-02-13T08:51:05;103753.50;;;5.92;100.00
64933;BME280;51446;53.850;10.662;2023-02-13T08:53:32;103739.19;;;5.77;100.00
64933;BME280;51446;53.850;10.662;2023-02-13T08:55:57;103749.59;;;5.77;100.00
64933;BME280;51446;53.850;10.662;2023-02-13T08:58:23;103749.59;;;5.77;100.00
64933;BME280;51446;53.850;10.662;2023-02-13T09:00:48;103749.59;;;5.77;100.00
64933;BME280;51446;53.850;10.662;2023-02-13T09:03:14;103746.84;;;5.85;100.00
64933;BME280;51446;53.850;10.662;2023-02-13T09:05:39;103747.63;;;5.84;100.00
64933;BME280;51446;53.850;10.662;2023-02-13T09:08:04;103747.50;;;5.83;100.00
64933;BME280;51446;53.850;10.662;2023-02-13T09:10:31;103750.66;;;5.99;100.00
64933;BME280;51446;53.850;10.662;2023-02-13T09:12:56;103750.09;;;6.03;100.00
64933;BME280;51446;53.850;10.662;2023-02-13T09:15:22;103752.16;;;6.07;100.00
64933;BME280;51446;53.850;10.662;2023-02-13T09:17:47;103751.03;;;6.04;100.00
64933;BME280;51446;53.850;10.662;2023-02-13T09:20:13;103747.09;;;5.99;100.00
64933;BME280;51446;53.850;10.662;2023-02-13T09:22:41;103753.50;;;6.02;100.00
64933;BME280;51446;53.850;10.662;2023-02-13T09:25:07;103748.94;;;6.00;100.00
64933;BME280;51446;53.850;10.662;2023-02-13T09:27:35;103747.09;;;5.88;100.00
64933;BME280;51446;53.850;10.662;2023-02-13T09:30:02;103741.50;;;6.04;100.00
64933;BME280;51446;53.850;10.662;2023-02-13T09:32:27;103740.44;;;6.13;100.00
64933;BME280;51446;53.850;10.662;2023-02-13T09:34:52;103739.91;;;6.17;100.00
64933;BME280;51446;53.850;10.662;2023-02-13T09:37:18;103741.38;;;6.03;100.00
64933;BME280;51446;53.850;10.662;2023-02-13T09:39:43;103731.56;;;6.11;100.00
64933;BME280;51446;53.850;10.662;2023-02-13T09:42:30;103746.03;;;6.17;100.00
64933;BME280;51446;53.850;10.662;2023-02-13T09:45:02;103736.91;;;6.22;100.00
64933;BME280;51446;53.850;10.662;2023-02-13T09:47:31;103732.41;;;6.32;100.00
64933;BME280;51446;53.850;10.662;2023-02-13T09:50:18;103745.00;;;6.15;100.00
64933;BME280;51446;53.850;10.662;2023-02-13T09:52:48;103738.41;;;6.31;100.00
64933;BME280;51446;53.850;10.662;2023-02-13T09:55:18;103736.22;;;6.25;100.00
64933;BME280;51446;53.850;10.662;2023-02-13T09:57:53;103727.78;;;6.17;100.00
64933;BME280;51446;53.850;10.662;2023-02-13T10:00:30;103710.72;;;6.21;100.00
64933;BME280;51446;53.850;10.662;2023-02-13T10:05:45;103722.81;;;6.20;100.00
64933;BME280;51446;53.850;10.662;2023-02-13T10:08:28;103724.88;;;6.24;100.00
64933;BME280;51446;53.850;10.662;2023-02-13T10:14:16;103733.44;;;6.34;100.00
64933;BME280;51446;53.850;10.662;2023-02-13T10:16:57;103739.59;;;6.34;100.00
64933;BME280;51446;53.850;10.662;2023-02-13T10:22:24;103731.59;;;6.43;100.00
64933;BME280;51446;53.850;10.662;2023-02-13T10:27:23;103738.34;;;6.51;100.00
64933;BME280;51446;53.850;10.662;2023-02-13T10:30:23;103740.97;;;6.41;100.00
64933;BME280;51446;53.850;10.662;2023-02-13T10:33:40;103745.25;;;6.18;100.00
64933;BME280;51446;53.850;10.662;2023-02-13T10:38:35;103740.66;;;6.48;100.00
64933;BME280;51446;53.850;10.662;2023-02-13T10:46:41;103734.75;;;6.61;100.00
64933;BME280;51446;53.850;10.662;2023-02-13T10:49:26;103724.47;;;6.63;100.00
64933;BME280;51446;53.850;10.662;2023-02-13T10:54:55;103733.38;;;6.54;100.00
64933;BME280;51446;53.850;10.662;2023-02-13T10:57:27;103735.31;;;6.57;100.00
64933;BME280;51446;53.850;10.662;2023-02-13T11:00:04;103735.50;;;6.70;100.00
64933;BME280;51446;53.850;10.662;2023-02-13T11:02:31;103738.47;;;6.53;100.00
64933;BME280;51446;53.850;10.662;2023-02-13T11:05:12;103730.41;;;6.50;100.00
64933;BME280;51446;53.850;10.662;2023-02-13T11:07:40;103722.00;;;6.54;100.00
64933;BME280;51446;53.850;10.662;2023-02-13T11:10:25;103719.03;;;6.49;100.00
64933;BME280;51446;53.850;10.662;2023-02-13T11:12:52;103707.94;;;6.52;100.00
64933;BME280;51446;53.850;10.662;2023-02-13T11:15:28;103697.41;;;6.50;100.00
64933;BME280;51446;53.850;10.662;2023-02-13T11:17:56;103716.50;;;6.61;100.00
64933;BME280;51446;53.850;10.662;2023-02-13T11:20:38;103717.31;;;6.60;100.00
64933;BME280;51446;53.850;10.662;2023-02-13T11:28:21;103717.00;;;6.67;100.00
64933;BME280;51446;53.850;10.662;2023-02-13T11:30:47;103709.31;;;6.69;100.00
64933;BME280;51446;53.850;10.662;2023-02-13T11:35:41;103710.25;;;6.59;100.00
64933;BME280;51446;53.850;10.662;2023-02-13T11:40:34;103713.47;;;6.67;100.00
64933;BME280;51446;53.850;10.662;2023-02-13T11:43:00;103712.50;;;6.76;100.00
64933;BME280;51446;53.850;10.662;2023-02-13T11:45:25;103711.38;;;6.73;100.00
64933;BME280;51446;53.850;10.662;2023-02-13T11:47:52;103710.75;;;6.65;100.00
64933;BME280;51446;53.850;10.662;2023-02-13T11:50:31;103703.72;;;6.64;100.00
64933;BME280;51446;53.850;10.662;2023-02-13T11:53:02;103706.38;;;6.76;100.00
64933;BME280;51446;53.850;10.662;2023-02-13T11:55:37;103709.19;;;6.67;100.00
64933;BME280;51446;53.850;10.662;2023-02-13T12:00:40;103706.31;;;6.86;100.00
64933;BME280;51446;53.850;10.662;2023-02-13T12:03:27;103711.00;;;6.90;100.00
64933;BME280;51446;53.850;10.662;2023-02-13T12:08:28;103710.59;;;7.08;100.00
64933;BME280;51446;53.850;10.662;2023-02-13T12:10:56;103707.53;;;7.02;100.00
64933;BME280;51446;53.850;10.662;2023-02-13T12:13:30;103693.97;;;7.18;100.00
64933;BME280;51446;53.850;10.662;2023-02-13T12:16:01;103689.19;;;6.90;100.00
64933;BME280;51446;53.850;10.662;2023-02-13T12:18:37;103696.28;;;7.03;100.00
64933;BME280;51446;53.850;10.662;2023-02-13T12:21:14;103705.16;;;7.05;100.00
64933;BME280;51446;53.850;10.662;2023-02-13T12:24:19;103700.53;;;6.68;100.00
64933;BME280;51446;53.850;10.662;2023-02-13T12:26:51;103698.75;;;6.67;100.00
64933;BME280;51446;53.850;10.662;2023-02-13T12:32:18;103695.69;;;6.95;100.00
64933;BME280;51446;53.850;10.662;2023-02-13T12:35:21;103695.81;;;6.97;100.00
64933;BME280;51446;53.850;10.662;2023-02-13T12:37:56;103699.69;;;6.80;100.00
64933;BME280;51446;53.850;10.662;2023-02-13T12:46:12;103689.03;;;6.99;100.00
64933;BME280;51446;53.850;10.662;2023-02-13T12:51:52;103681.03;;;6.97;100.00
64933;BME280;51446;53.850;10.662;2023-02-13T12:54:30;103678.16;;;6.82;100.00
64933;BME280;51446;53.850;10.662;2023-02-13T12:57:17;103673.19;;;6.85;100.00
64933;BME280;51446;53.850;10.662;2023-02-13T13:00:04;103667.69;;;6.70;100.00
64933;BME280;51446;53.850;10.662;2023-02-13T13:05:30;103681.22;;;6.76;100.00
64933;BME280;51446;53.850;10.662;2023-02-13T13:09:02;103676.13;;;6.56;100.00
64933;BME280;51446;53.850;10.662;2023-02-13T13:11:32;103683.75;;;6.65;100.00
64933;BME280;51446;53.850;10.662;2023-02-13T13:20:33;103686.72;;;6.69;100.00
64933;BME280;51446;53.850;10.662;2023-02-13T13:22:56;103691.81;;;6.68;100.00
64933;BME280;51446;53.850;10.662;2023-02-13T13:25:41;103685.19;;;6.61;100.00
64933;BME280;51446;53.850;10.662;2023-02-13T13:28:34;103681.22;;;6.76;100.00
64933;BME280;51446;53.850;10.662;2023-02-13T13:31:02;103694.78;;;6.72;100.00
64933;BME280;51446;53.850;10.662;2023-02-13T13:33:27;103689.28;;;6.57;100.00
64933;BME280;51446;53.850;10.662;2023-02-13T13:38:52;103695.50;;;6.59;100.00
64933;BME280;51446;53.850;10.662;2023-02-13T13:41:29;103695.16;;;6.55;100.00
64933;BME280;51446;53.850;10.662;2023-02-13T13:44:23;103694.97;;;6.41;100.00
64933;BME280;51446;53.850;10.662;2023-02-13T13:46:57;103688.69;;;6.50;100.00
64933;BME280;51446;53.850;10.662;2023-02-13T13:52:27;103691.72;;;6.44;100.00
64933;BME280;51446;53.850;10.662;2023-02-13T13:54:54;103700.66;;;6.48;100.00
64933;BME280;51446;53.850;10.662;2023-02-13T14:05:16;103691.28;;;6.50;100.00
64933;BME280;51446;53.850;10.662;2023-02-13T14:07:43;103689.03;;;6.54;100.00
64933;BME280;51446;53.850;10.662;2023-02-13T14:13:00;103683.19;;;6.47;100.00
64933;BME280;51446;53.850;10.662;2023-02-13T14:17:58;103668.31;;;6.56;100.00
64933;BME280;51446;53.850;10.662;2023-02-13T14:20:39;103672.34;;;6.52;100.00
64933;BME280;51446;53.850;10.662;2023-02-13T14:23:17;103670.22;;;6.36;100.00
64933;BME280;51446;53.850;10.662;2023-02-13T14:25:44;103665.66;;;6.34;100.00
64933;BME280;51446;53.850;10.662;2023-02-13T14:28:25;103669.03;;;6.43;100.00
64933;BME280;51446;53.850;10.662;2023-02-13T14:31:04;103662.16;;;6.33;100.00
64933;BME280;51446;53.850;10.662;2023-02-13T14:33:31;103660.44;;;6.44;100.00
64933;BME280;51446;53.850;10.662;2023-02-13T14:36:00;103662.09;;;6.21;100.00
64933;BME280;51446;53.850;10.662;2023-02-13T14:38:27;103656.13;;;6.45;100.00
64933;BME280;51446;53.850;10.662;2023-02-13T14:40:53;103650.91;;;6.22;100.00